createdAt,value
2018-09-29T00:00:46.828Z,54.30
2018-09-29T00:04:50.625Z,54.20
2018-09-29T00:08:54.428Z,54.30
2018-09-29T00:12:58.364Z,54.30
2018-09-29T00:17:02.042Z,54.40
2018-09-29T00:21:05.773Z,54.30
2018-09-29T00:25:09.520Z,54.50
2018-09-29T00:29:13.204Z,54.80
2018-09-29T00:33:16.933Z,55.00
2018-09-29T00:37:20.590Z,54.80
2018-09-29T00:41:24.288Z,54.80
2018-09-29T00:45:28.036Z,54.70
2018-09-29T00:49:31.728Z,54.70
2018-09-29T00:53:35.529Z,54.70
2018-09-29T00:57:39.194Z,54.80
2018-09-29T01:01:42.865Z,54.70
2018-09-29T01:05:46.548Z,54.70
2018-09-29T01:09:50.333Z,54.70
2018-09-29T01:13:54.025Z,54.80
2018-09-29T01:17:57.698Z,54.90
2018-09-29T01:22:01.408Z,54.80
2018-09-29T01:26:05.253Z,54.80
2018-09-29T01:30:08.979Z,54.80
2018-09-29T01:34:12.716Z,54.40
2018-09-29T01:38:17.228Z,54.90
2018-09-29T01:42:20.901Z,54.90
2018-09-29T01:46:24.613Z,55.00
2018-09-29T01:50:28.324Z,55.00
2018-09-29T01:54:32.008Z,55.00
2018-09-29T01:58:35.682Z,54.90
2018-09-29T02:02:39.401Z,55.00
2018-09-29T02:06:43.129Z,54.80
2018-09-29T02:10:46.909Z,54.90
2018-09-29T02:14:50.649Z,54.90
2018-09-29T02:18:54.321Z,54.90
2018-09-29T02:22:58.017Z,55.20
2018-09-29T02:27:01.812Z,55.50
2018-09-29T02:31:05.515Z,56.30
2018-09-29T02:35:09.342Z,56.20
2018-09-29T02:39:13.451Z,56.20
2018-09-29T02:43:17.175Z,56.20
2018-09-29T02:47:21.061Z,55.40
2018-09-29T02:51:24.749Z,55.30
2018-09-29T02:55:28.466Z,55.80
2018-09-29T02:59:32.194Z,55.70
2018-09-29T03:03:35.844Z,55.80
2018-09-29T03:07:39.618Z,55.80
2018-09-29T03:11:43.327Z,55.90
2018-09-29T03:15:47.059Z,56.10
2018-09-29T03:19:50.774Z,56.80
2018-09-29T03:23:54.457Z,56.00
2018-09-29T03:27:58.189Z,56.10
2018-09-29T03:32:01.981Z,56.10
2018-09-29T03:36:05.722Z,55.60
2018-09-29T03:40:09.413Z,56.20
2018-09-29T03:44:13.079Z,57.00
2018-09-29T03:48:16.764Z,56.50
2018-09-29T03:52:20.442Z,56.70
2018-09-29T03:56:24.153Z,56.80
2018-09-29T04:00:27.939Z,57.30
2018-09-29T04:04:31.609Z,55.90
2018-09-29T04:08:35.672Z,56.70
2018-09-29T04:12:39.489Z,56.50
2018-09-29T04:16:43.206Z,56.40
2018-09-29T04:20:46.902Z,55.60
2018-09-29T04:24:50.581Z,56.50
2018-09-29T04:28:54.445Z,57.00
2018-09-29T04:32:58.250Z,56.60
2018-09-29T04:37:01.967Z,56.00
2018-09-29T04:41:05.694Z,56.00
2018-09-29T04:45:09.377Z,56.20
2018-09-29T04:49:13.209Z,56.70
2018-09-29T04:53:16.875Z,56.70
2018-09-29T04:57:20.573Z,56.70
2018-09-29T05:01:24.293Z,56.60
2018-09-29T05:05:27.974Z,55.70
2018-09-29T05:09:31.674Z,56.40
2018-09-29T05:13:35.498Z,56.50
2018-09-29T05:17:39.217Z,56.50
2018-09-29T05:21:42.928Z,56.50
2018-09-29T05:25:46.730Z,56.80
2018-09-29T05:29:50.455Z,57.10
2018-09-29T05:33:54.205Z,56.80
2018-09-29T05:37:57.909Z,56.70
2018-09-29T05:42:01.610Z,56.80
2018-09-29T05:46:05.282Z,56.80
2018-09-29T05:50:09.428Z,56.60
2018-09-29T05:54:13.122Z,57.40
2018-09-29T05:58:16.813Z,57.20
2018-09-29T06:02:20.518Z,57.10
2018-09-29T06:06:24.226Z,57.50
2018-09-29T06:10:27.933Z,57.60
2018-09-29T06:14:31.645Z,57.40
2018-09-29T06:18:35.425Z,57.50
2018-09-29T06:22:39.137Z,57.90
2018-09-29T06:26:42.866Z,57.50
2018-09-29T06:30:46.702Z,57.50
2018-09-29T06:34:50.457Z,57.00
2018-09-29T06:38:54.186Z,57.60
2018-09-29T06:42:57.921Z,57.90
2018-09-29T06:47:01.577Z,58.00
2018-09-29T06:51:05.277Z,57.90
2018-09-29T06:55:08.990Z,58.30
2018-09-29T06:59:12.700Z,58.50
2018-09-29T07:03:16.367Z,58.40
2018-09-29T07:07:20.074Z,58.20
2018-09-29T07:11:23.817Z,58.40
2018-09-29T07:15:27.614Z,58.50
2018-09-29T07:19:31.371Z,58.70
2018-09-29T07:23:35.085Z,58.20
2018-09-29T07:27:38.797Z,58.70
2018-09-29T07:31:42.495Z,58.80
2018-09-29T07:35:46.245Z,58.10
2018-09-29T07:39:49.945Z,58.80
2018-09-29T07:43:53.620Z,58.60
2018-09-29T07:47:57.426Z,58.50
2018-09-29T07:52:01.136Z,58.40
2018-09-29T07:56:05.498Z,59.30
2018-09-29T08:00:09.233Z,58.90
2018-09-29T08:04:13.611Z,58.80
2018-09-29T08:08:17.427Z,59.10
2018-09-29T08:12:21.167Z,59.60
2018-09-29T08:16:25.489Z,62.20
2018-09-29T08:20:29.192Z,59.20
2018-09-29T08:24:32.997Z,61.10
2018-09-29T08:28:36.688Z,61.10
2018-09-29T08:32:40.527Z,60.70
2018-09-29T08:36:44.325Z,60.10
2018-09-29T08:40:48.021Z,59.60
2018-09-29T08:44:51.717Z,59.40
2018-09-29T08:48:55.432Z,60.50
2018-09-29T08:52:59.144Z,63.30
2018-09-29T08:57:02.865Z,60.30
2018-09-29T09:01:06.865Z,59.30
2018-09-29T09:05:10.557Z,61.90
2018-09-29T09:09:14.328Z,59.90
2018-09-29T09:13:18.022Z,59.60
2018-09-29T09:17:21.742Z,60.10
2018-09-29T09:21:25.467Z,60.70
2018-09-29T09:25:29.137Z,59.80
2018-09-29T09:29:32.836Z,59.80
2018-09-29T09:33:36.582Z,60.10
2018-09-29T09:37:42.334Z,60.10
2018-09-29T09:41:46.073Z,60.60
2018-09-29T09:45:49.906Z,60.10
2018-09-29T09:49:53.851Z,60.40
2018-09-29T09:53:57.565Z,59.80
2018-09-29T09:58:01.282Z,59.40
2018-09-29T10:02:10.151Z,59.00
2018-09-29T10:06:13.944Z,58.90
2018-09-29T10:10:17.662Z,59.20
2018-09-29T10:14:21.382Z,59.00
2018-09-29T10:18:25.112Z,59.00
2018-09-29T10:22:28.835Z,58.50
2018-09-29T10:26:32.658Z,59.50
2018-09-29T10:30:36.350Z,58.70
2018-09-29T10:34:40.090Z,58.70
2018-09-29T10:38:43.805Z,58.70
2018-09-29T10:42:47.517Z,58.80
2018-09-29T10:46:51.248Z,58.60
2018-09-29T10:50:54.962Z,58.70
2018-09-29T10:54:58.717Z,58.50
2018-09-29T10:59:02.523Z,58.40
2018-09-29T11:03:06.237Z,59.00
2018-09-29T11:07:10.098Z,58.40
2018-09-29T11:11:14.266Z,58.20
2018-09-29T11:15:18.033Z,57.70
2018-09-29T11:19:21.757Z,58.00
2018-09-29T11:23:25.480Z,58.40
2018-09-29T11:27:29.226Z,57.60
2018-09-29T11:31:32.941Z,57.20
2018-09-29T11:35:36.690Z,57.50
2018-09-29T11:39:40.557Z,57.40
2018-09-29T11:43:44.293Z,57.40
2018-09-29T11:47:48.258Z,57.30
2018-09-29T11:51:51.965Z,57.30
2018-09-29T11:55:55.682Z,57.10
2018-09-29T11:59:59.414Z,57.20
2018-09-29T12:04:03.205Z,57.20
2018-09-29T12:08:07.047Z,57.00
2018-09-29T12:12:10.770Z,56.80
2018-09-29T12:16:14.596Z,55.80
2018-09-29T12:20:18.333Z,56.60
2018-09-29T12:24:22.094Z,56.90
2018-09-29T12:28:25.837Z,56.90
2018-09-29T12:32:29.652Z,56.10
2018-09-29T12:36:33.362Z,56.40
2018-09-29T12:40:37.089Z,56.20
2018-09-29T12:44:41.004Z,55.60
2018-09-29T12:48:44.804Z,55.70
2018-09-29T12:52:48.487Z,55.40
2018-09-29T12:56:52.239Z,55.20
2018-09-29T13:00:56.095Z,55.60
2018-09-29T13:04:59.849Z,55.40
2018-09-29T13:09:05.249Z,55.70
2018-09-29T13:13:09.010Z,55.80
2018-09-29T13:17:12.727Z,55.50
2018-09-29T13:21:16.486Z,55.60
2018-09-29T13:25:20.215Z,55.40
2018-09-29T13:29:24.031Z,54.10
2018-09-29T13:33:27.770Z,53.10
2018-09-29T13:37:31.509Z,49.20
2018-09-29T13:41:35.312Z,54.00
2018-09-29T13:45:39.056Z,53.60
2018-09-29T13:49:42.773Z,52.90
2018-09-29T13:53:46.555Z,52.40
2018-09-29T13:57:50.266Z,51.70
2018-09-29T14:01:53.986Z,51.90
2018-09-29T14:05:57.720Z,53.70
2018-09-29T14:10:01.566Z,53.50
2018-09-29T14:14:05.977Z,53.10
2018-09-29T14:18:09.695Z,53.00
2018-09-29T14:22:13.463Z,51.00
2018-09-29T14:26:17.153Z,52.90
2018-09-29T14:30:20.900Z,52.80
2018-09-29T14:34:24.621Z,52.90
2018-09-29T14:38:28.365Z,52.10
2018-09-29T14:42:32.135Z,52.20
2018-09-29T14:46:35.917Z,49.60
2018-09-29T14:50:39.638Z,53.30
2018-09-29T14:54:43.409Z,54.40
2018-09-29T14:58:47.114Z,50.60
2018-09-29T15:02:50.830Z,53.20
2018-09-29T15:06:54.559Z,52.60
2018-09-29T15:10:58.312Z,52.60
2018-09-29T15:15:02.120Z,52.70
2018-09-29T15:19:05.936Z,51.70
2018-09-29T15:23:09.715Z,51.00
2018-09-29T15:27:13.447Z,51.50
2018-09-29T15:31:17.167Z,49.70
2018-09-29T15:35:20.905Z,50.10
2018-09-29T15:39:24.750Z,50.40
2018-09-29T15:43:28.486Z,51.00
2018-09-29T15:47:32.193Z,49.90
2018-09-29T15:51:36.357Z,50.90
2018-09-29T15:55:40.176Z,50.80
2018-09-29T15:59:43.953Z,50.90
2018-09-29T16:03:47.703Z,50.00
2018-09-29T16:07:51.468Z,50.60
2018-09-29T16:11:55.238Z,50.90
2018-09-29T16:15:58.961Z,51.00
2018-09-29T16:20:02.692Z,50.90
2018-09-29T16:24:06.460Z,51.20
2018-09-29T16:28:10.353Z,50.80
2018-09-29T16:32:14.112Z,51.30
2018-09-29T16:36:17.882Z,51.30
2018-09-29T16:40:21.698Z,51.20
2018-09-29T16:44:25.450Z,51.30
2018-09-29T16:48:29.228Z,51.30
2018-09-29T16:52:32.995Z,51.40
2018-09-29T16:56:36.785Z,51.40
2018-09-29T17:00:40.593Z,51.10
2018-09-29T17:04:44.446Z,51.60
2018-09-29T17:08:48.233Z,51.50
2018-09-29T17:12:52.009Z,51.60
2018-09-29T17:16:55.717Z,51.60
2018-09-29T17:20:59.800Z,51.70
2018-09-29T17:25:03.564Z,51.70
2018-09-29T17:29:07.340Z,51.70
2018-09-29T17:33:11.126Z,51.70
2018-09-29T17:37:14.886Z,51.80
2018-09-29T17:41:18.673Z,51.80
2018-09-29T17:45:22.494Z,51.90
2018-09-29T17:49:26.285Z,51.30
2018-09-29T17:53:30.129Z,51.90
2018-09-29T17:57:33.832Z,51.40
2018-09-29T18:01:37.725Z,52.00
2018-09-29T18:05:41.496Z,52.10
2018-09-29T18:09:46.919Z,52.20
2018-09-29T18:13:53.211Z,52.20
2018-09-29T18:17:58.921Z,52.40
2018-09-29T18:22:04.292Z,52.30
2018-09-29T18:26:09.975Z,52.40
2018-09-29T18:30:15.410Z,52.50
2018-09-29T18:34:21.610Z,52.60
2018-09-29T18:38:26.616Z,52.80
2018-09-29T18:42:31.341Z,52.80
2018-09-29T18:46:35.768Z,52.70
2018-09-29T18:50:39.626Z,52.80
2018-09-29T18:54:43.725Z,52.90
2018-09-29T18:58:49.246Z,52.90
2018-09-29T19:02:54.524Z,53.10
2018-09-29T19:07:00.024Z,52.30
2018-09-29T19:11:03.752Z,53.10
2018-09-29T19:15:07.667Z,53.60
2018-09-29T19:19:12.568Z,53.20
2018-09-29T19:23:16.356Z,52.70
2018-09-29T19:27:20.720Z,53.40
2018-09-29T19:31:24.462Z,52.80
2018-09-29T19:35:28.445Z,53.50
2018-09-29T19:39:32.247Z,53.50
2018-09-29T19:43:35.965Z,53.60
2018-09-29T19:47:39.682Z,53.70
2018-09-29T19:51:43.397Z,53.80
2018-09-29T19:55:47.108Z,53.80
2018-09-29T19:59:50.894Z,53.90
2018-09-29T20:03:54.614Z,53.90
2018-09-29T20:07:58.390Z,53.90
2018-09-29T20:12:02.214Z,53.50
2018-09-29T20:16:05.982Z,54.30
2018-09-29T20:20:09.702Z,54.20
2018-09-29T20:24:13.501Z,54.60
2018-09-29T20:28:17.193Z,54.70
2018-09-29T20:32:21.116Z,54.50
2018-09-29T20:36:24.842Z,54.40
2018-09-29T20:40:28.573Z,54.50
2018-09-29T20:44:32.241Z,54.40
2018-09-29T20:48:36.004Z,54.50
2018-09-29T20:52:39.726Z,54.40
2018-09-29T20:56:43.442Z,54.50
2018-09-29T21:00:47.229Z,54.50
2018-09-29T21:04:50.947Z,54.00
2018-09-29T21:08:54.702Z,55.20
2018-09-29T21:12:58.506Z,54.60
2018-09-29T21:17:02.168Z,54.60
2018-09-29T21:21:05.886Z,54.70
2018-09-29T21:25:09.622Z,55.10
2018-09-29T21:29:13.349Z,55.10
2018-09-29T21:33:17.102Z,54.90
2018-09-29T21:37:20.814Z,54.90
2018-09-29T21:41:24.628Z,55.00
2018-09-29T21:45:28.357Z,55.00
2018-09-29T21:49:32.182Z,55.10
2018-09-29T21:53:35.905Z,54.30
2018-09-29T21:57:39.636Z,55.10
2018-09-29T22:01:43.394Z,55.10
2018-09-29T22:05:47.167Z,55.30
2018-09-29T22:09:50.917Z,55.20
2018-09-29T22:13:55.119Z,55.20
2018-09-29T22:17:58.888Z,55.20
2018-09-29T22:22:02.629Z,55.20
2018-09-29T22:26:06.377Z,55.20
2018-09-29T22:30:10.143Z,55.20
2018-09-29T22:34:14.051Z,55.20
2018-09-29T22:38:17.849Z,55.30
2018-09-29T22:42:21.530Z,55.30
2018-09-29T22:46:25.240Z,55.30
2018-09-29T22:50:29.014Z,55.20
2018-09-29T22:54:32.758Z,55.30
2018-09-29T22:58:36.497Z,54.60
2018-09-29T23:02:40.205Z,55.40
2018-09-29T23:06:43.929Z,56.00
2018-09-29T23:10:47.794Z,55.40
2018-09-29T23:14:51.533Z,55.40
2018-09-29T23:18:55.392Z,55.40
2018-09-29T23:22:59.072Z,55.40
2018-09-29T23:27:05.567Z,55.60
2018-09-29T23:31:09.299Z,55.50
2018-09-29T23:35:13.063Z,55.60
2018-09-29T23:39:16.777Z,55.60
2018-09-29T23:43:20.480Z,55.70
2018-09-29T23:47:24.205Z,55.80
2018-09-29T23:51:27.942Z,55.70
2018-09-29T23:55:31.734Z,55.80
2018-09-29T23:59:35.435Z,55.80
